sensor_id;sensor_type;location;lat;lon;timestamp;P1;durP1;ratioP1;P2;durP2;ratioP2
49962;SDS011;36180;57.678;11.910;2023-03-01T00:00:05;4.28;;;2.35;;
49962;SDS011;36180;57.678;11.910;2023-03-01T00:02:36;3.42;;;2.42;;
49962;SDS011;36180;57.678;11.910;2023-03-01T00:05:04;3.47;;;2.10;;
49962;SDS011;36180;57.678;11.910;2023-03-01T00:07:32;4.20;;;2.65;;
49962;SDS011;36180;57.678;11.910;2023-03-01T00:09:59;4.63;;;2.58;;
49962;SDS011;36180;57.678;11.910;2023-03-01T00:12:26;7.25;;;2.85;;
49962;SDS011;36180;57.678;11.910;2023-03-01T00:14:54;4.88;;;3.45;;
49962;SDS011;36180;57.678;11.910;2023-03-01T00:17:22;4.97;;;3.28;;
49962;SDS011;36180;57.678;11.910;2023-03-01T00:19:49;5.82;;;4.45;;
49962;SDS011;36180;57.678;11.910;2023-03-01T00:22:16;7.28;;;4.10;;
49962;SDS011;36180;57.678;11.910;2023-03-01T00:24:43;5.45;;;4.47;;
49962;SDS011;36180;57.678;11.910;2023-03-01T00:27:10;7.05;;;4.97;;
49962;SDS011;36180;57.678;11.910;2023-03-01T00:29:37;4.00;;;3.13;;
49962;SDS011;36180;57.678;11.910;2023-03-01T00:32:04;4.60;;;3.00;;
49962;SDS011;36180;57.678;11.910;2023-03-01T00:34:33;7.35;;;3.95;;
49962;SDS011;36180;57.678;11.910;2023-03-01T00:37:00;5.90;;;4.60;;
49962;SDS011;36180;57.678;11.910;2023-03-01T00:39:30;7.28;;;5.22;;
49962;SDS011;36180;57.678;11.910;2023-03-01T00:41:58;6.50;;;4.88;;
49962;SDS011;36180;57.678;11.910;2023-03-01T00:44:25;6.72;;;5.55;;
49962;SDS011;36180;57.678;11.910;2023-03-01T00:46:53;8.88;;;5.95;;
49962;SDS011;36180;57.678;11.910;2023-03-01T00:49:20;13.65;;;6.07;;
49962;SDS011;36180;57.678;11.910;2023-03-01T00:51:50;8.20;;;5.47;;
49962;SDS011;36180;57.678;11.910;2023-03-01T00:54:17;6.70;;;5.47;;
49962;SDS011;36180;57.678;11.910;2023-03-01T00:56:46;11.43;;;6.25;;
49962;SDS011;36180;57.678;11.910;2023-03-01T00:59:13;8.95;;;5.72;;
49962;SDS011;36180;57.678;11.910;2023-03-01T01:01:40;7.78;;;5.85;;
49962;SDS011;36180;57.678;11.910;2023-03-01T01:04:08;5.28;;;3.95;;
49962;SDS011;36180;57.678;11.910;2023-03-01T01:06:37;8.38;;;4.85;;
49962;SDS011;36180;57.678;11.910;2023-03-01T01:09:09;5.45;;;4.32;;
49962;SDS011;36180;57.678;11.910;2023-03-01T01:11:42;6.75;;;4.85;;
49962;SDS011;36180;57.678;11.910;2023-03-01T01:14:09;5.22;;;4.70;;
49962;SDS011;36180;57.678;11.910;2023-03-01T01:16:37;7.22;;;4.80;;
49962;SDS011;36180;57.678;11.910;2023-03-01T01:19:04;6.65;;;4.57;;
49962;SDS011;36180;57.678;11.910;2023-03-01T01:21:31;9.93;;;4.70;;
49962;SDS011;36180;57.678;11.910;2023-03-01T01:23:58;8.73;;;4.50;;
49962;SDS011;36180;57.678;11.910;2023-03-01T01:26:28;6.80;;;4.65;;
49962;SDS011;36180;57.678;11.910;2023-03-01T01:28:56;7.25;;;4.20;;
49962;SDS011;36180;57.678;11.910;2023-03-01T01:31:23;8.48;;;4.57;;
49962;SDS011;36180;57.678;11.910;2023-03-01T01:33:51;7.32;;;5.03;;
49962;SDS011;36180;57.678;11.910;2023-03-01T01:36:19;7.90;;;5.07;;
49962;SDS011;36180;57.678;11.910;2023-03-01T01:38:46;7.05;;;4.95;;
49962;SDS011;36180;57.678;11.910;2023-03-01T01:41:16;9.10;;;5.70;;
49962;SDS011;36180;57.678;11.910;2023-03-01T01:43:46;10.65;;;6.43;;
49962;SDS011;36180;57.678;11.910;2023-03-01T01:46:25;8.40;;;5.97;;
49962;SDS011;36180;57.678;11.910;2023-03-01T01:48:56;8.82;;;5.90;;
49962;SDS011;36180;57.678;11.910;2023-03-01T01:51:28;7.85;;;5.45;;
49962;SDS011;36180;57.678;11.910;2023-03-01T01:54:05;7.10;;;5.45;;
49962;SDS011;36180;57.678;11.910;2023-03-01T01:56:34;7.90;;;5.75;;
49962;SDS011;36180;57.678;11.910;2023-03-01T01:59:04;8.13;;;5.38;;
49962;SDS011;36180;57.678;11.910;2023-03-01T02:01:32;7.00;;;5.50;;
49962;SDS011;36180;57.678;11.910;2023-03-01T02:03:59;8.00;;;5.65;;
49962;SDS011;36180;57.678;11.910;2023-03-01T02:06:27;8.70;;;5.65;;
49962;SDS011;36180;57.678;11.910;2023-03-01T02:08:57;6.38;;;5.53;;
49962;SDS011;36180;57.678;11.910;2023-03-01T02:11:27;8.85;;;5.38;;
49962;SDS011;36180;57.678;11.910;2023-03-01T02:13:56;7.47;;;5.43;;
49962;SDS011;36180;57.678;11.910;2023-03-01T02:16:24;5.95;;;4.88;;
49962;SDS011;36180;57.678;11.910;2023-03-01T02:18:52;8.15;;;5.63;;
49962;SDS011;36180;57.678;11.910;2023-03-01T02:21:24;6.82;;;5.10;;
49962;SDS011;36180;57.678;11.910;2023-03-01T02:23:57;8.55;;;4.97;;
49962;SDS011;36180;57.678;11.910;2023-03-01T02:26:28;8.65;;;4.70;;
49962;SDS011;36180;57.678;11.910;2023-03-01T02:28:59;7.60;;;4.47;;
49962;SDS011;36180;57.678;11.910;2023-03-01T02:31:26;10.77;;;6.25;;
49962;SDS011;36180;57.678;11.910;2023-03-01T02:34:11;7.35;;;3.25;;
49962;SDS011;36180;57.678;11.910;2023-03-01T02:36:40;5.32;;;3.20;;
49962;SDS011;36180;57.678;11.910;2023-03-01T02:39:11;6.28;;;3.50;;
49962;SDS011;36180;57.678;11.910;2023-03-01T02:41:44;6.75;;;3.70;;
49962;SDS011;36180;57.678;11.910;2023-03-01T02:44:14;6.88;;;3.80;;
49962;SDS011;36180;57.678;11.910;2023-03-01T02:46:42;5.72;;;3.92;;
49962;SDS011;36180;57.678;11.910;2023-03-01T02:49:20;8.40;;;4.10;;
49962;SDS011;36180;57.678;11.910;2023-03-01T02:51:54;4.95;;;3.95;;
49962;SDS011;36180;57.678;11.910;2023-03-01T02:54:28;9.45;;;4.25;;
49962;SDS011;36180;57.678;11.910;2023-03-01T02:56:58;9.48;;;4.53;;
49962;SDS011;36180;57.678;11.910;2023-03-01T02:59:31;7.63;;;4.13;;
49962;SDS011;36180;57.678;11.910;2023-03-01T03:02:05;6.68;;;3.72;;
49962;SDS011;36180;57.678;11.910;2023-03-01T03:04:32;6.95;;;4.38;;
49962;SDS011;36180;57.678;11.910;2023-03-01T03:07:01;6.32;;;4.03;;
49962;SDS011;36180;57.678;11.910;2023-03-01T03:09:28;8.70;;;5.00;;
49962;SDS011;36180;57.678;11.910;2023-03-01T03:11:55;6.97;;;4.20;;
49962;SDS011;36180;57.678;11.910;2023-03-01T03:14:22;6.20;;;4.30;;
49962;SDS011;36180;57.678;11.910;2023-03-01T03:16:51;4.90;;;3.90;;
49962;SDS011;36180;57.678;11.910;2023-03-01T03:19:18;7.40;;;4.25;;
49962;SDS011;36180;57.678;11.910;2023-03-01T03:21:46;8.52;;;4.15;;
49962;SDS011;36180;57.678;11.910;2023-03-01T03:24:13;6.95;;;4.35;;
49962;SDS011;36180;57.678;11.910;2023-03-01T03:26:40;8.70;;;4.80;;
49962;SDS011;36180;57.678;11.910;2023-03-01T03:29:07;6.07;;;4.65;;
49962;SDS011;36180;57.678;11.910;2023-03-01T03:31:34;5.63;;;4.10;;
49962;SDS011;36180;57.678;11.910;2023-03-01T03:34:02;7.75;;;4.68;;
49962;SDS011;36180;57.678;11.910;2023-03-01T03:36:29;8.88;;;4.65;;
49962;SDS011;36180;57.678;11.910;2023-03-01T03:38:56;5.72;;;4.10;;
49962;SDS011;36180;57.678;11.910;2023-03-01T03:41:24;5.60;;;3.90;;
49962;SDS011;36180;57.678;11.910;2023-03-01T03:43:51;6.15;;;4.00;;
49962;SDS011;36180;57.678;11.910;2023-03-01T03:46:18;7.00;;;3.92;;
49962;SDS011;36180;57.678;11.910;2023-03-01T03:48:45;8.55;;;4.00;;
49962;SDS011;36180;57.678;11.910;2023-03-01T03:51:14;6.43;;;4.10;;
49962;SDS011;36180;57.678;11.910;2023-03-01T03:53:42;9.10;;;3.95;;
49962;SDS011;36180;57.678;11.910;2023-03-01T03:56:10;6.82;;;3.78;;
49962;SDS011;36180;57.678;11.910;2023-03-01T03:58:37;7.43;;;4.00;;
49962;SDS011;36180;57.678;11.910;2023-03-01T04:01:05;7.65;;;4.40;;
49962;SDS011;36180;57.678;11.910;2023-03-01T04:03:32;9.90;;;5.00;;
49962;SDS011;36180;57.678;11.910;2023-03-01T04:06:00;8.63;;;5.43;;
49962;SDS011;36180;57.678;11.910;2023-03-01T04:08:29;9.75;;;6.40;;
49962;SDS011;36180;57.678;11.910;2023-03-01T04:10:57;9.20;;;5.07;;
49962;SDS011;36180;57.678;11.910;2023-03-01T04:13:45;10.45;;;5.15;;
49962;SDS011;36180;57.678;11.910;2023-03-01T04:16:13;14.73;;;5.18;;
49962;SDS011;36180;57.678;11.910;2023-03-01T04:18:40;9.65;;;5.20;;
49962;SDS011;36180;57.678;11.910;2023-03-01T04:21:07;6.78;;;4.93;;
49962;SDS011;36180;57.678;11.910;2023-03-01T04:23:35;9.35;;;4.47;;
49962;SDS011;36180;57.678;11.910;2023-03-01T04:26:03;6.95;;;4.35;;
49962;SDS011;36180;57.678;11.910;2023-03-01T04:28:31;10.05;;;5.28;;
49962;SDS011;36180;57.678;11.910;2023-03-01T04:31:01;9.30;;;5.20;;
49962;SDS011;36180;57.678;11.910;2023-03-01T04:33:37;9.20;;;5.32;;
49962;SDS011;36180;57.678;11.910;2023-03-01T04:36:05;11.38;;;4.68;;
49962;SDS011;36180;57.678;11.910;2023-03-01T04:38:34;9.32;;;4.32;;
49962;SDS011;36180;57.678;11.910;2023-03-01T04:41:03;7.55;;;4.38;;
49962;SDS011;36180;57.678;11.910;2023-03-01T04:43:31;9.00;;;4.35;;
49962;SDS011;36180;57.678;11.910;2023-03-01T04:46:02;9.73;;;3.72;;
49962;SDS011;36180;57.678;11.910;2023-03-01T04:48:31;7.20;;;3.88;;
49962;SDS011;36180;57.678;11.910;2023-03-01T04:50:59;7.07;;;3.85;;
49962;SDS011;36180;57.678;11.910;2023-03-01T04:53:26;5.63;;;3.90;;
49962;SDS011;36180;57.678;11.910;2023-03-01T04:55:55;5.15;;;3.13;;
49962;SDS011;36180;57.678;11.910;2023-03-01T04:58:23;6.03;;;3.58;;
49962;SDS011;36180;57.678;11.910;2023-03-01T05:00:51;6.03;;;3.53;;
49962;SDS011;36180;57.678;11.910;2023-03-01T05:03:19;6.90;;;3.03;;
49962;SDS011;36180;57.678;11.910;2023-03-01T05:05:47;4.68;;;2.97;;
49962;SDS011;36180;57.678;11.910;2023-03-01T05:08:15;5.53;;;2.60;;
49962;SDS011;36180;57.678;11.910;2023-03-01T05:10:44;6.40;;;2.63;;
49962;SDS011;36180;57.678;11.910;2023-03-01T05:13:13;5.25;;;2.67;;
49962;SDS011;36180;57.678;11.910;2023-03-01T05:15:46;3.50;;;2.20;;
49962;SDS011;36180;57.678;11.910;2023-03-01T05:18:14;4.88;;;2.95;;
49962;SDS011;36180;57.678;11.910;2023-03-01T05:20:41;3.97;;;2.70;;
49962;SDS011;36180;57.678;11.910;2023-03-01T05:23:09;4.80;;;2.65;;
49962;SDS011;36180;57.678;11.910;2023-03-01T05:25:37;7.72;;;2.38;;
49962;SDS011;36180;57.678;11.910;2023-03-01T05:28:06;4.65;;;2.42;;
49962;SDS011;36180;57.678;11.910;2023-03-01T05:30:36;6.38;;;2.70;;
49962;SDS011;36180;57.678;11.910;2023-03-01T05:33:04;5.97;;;2.20;;
49962;SDS011;36180;57.678;11.910;2023-03-01T05:35:35;3.78;;;2.40;;
49962;SDS011;36180;57.678;11.910;2023-03-01T05:38:02;5.22;;;2.58;;
49962;SDS011;36180;57.678;11.910;2023-03-01T05:40:29;5.70;;;2.22;;
49962;SDS011;36180;57.678;11.910;2023-03-01T05:42:56;2.95;;;2.10;;
49962;SDS011;36180;57.678;11.910;2023-03-01T05:45:24;2.92;;;2.20;;
49962;SDS011;36180;57.678;11.910;2023-03-01T05:47:53;2.72;;;1.73;;
49962;SDS011;36180;57.678;11.910;2023-03-01T05:50:21;2.17;;;1.60;;
49962;SDS011;36180;57.678;11.910;2023-03-01T05:52:51;2.90;;;1.63;;
49962;SDS011;36180;57.678;11.910;2023-03-01T05:55:22;3.45;;;1.67;;
49962;SDS011;36180;57.678;11.910;2023-03-01T05:57:50;2.80;;;2.05;;
49962;SDS011;36180;57.678;11.910;2023-03-01T06:00:18;3.47;;;1.92;;
49962;SDS011;36180;57.678;11.910;2023-03-01T06:02:47;3.03;;;2.13;;
49962;SDS011;36180;57.678;11.910;2023-03-01T06:05:15;4.90;;;2.30;;
49962;SDS011;36180;57.678;11.910;2023-03-01T06:07:43;2.92;;;2.25;;
49962;SDS011;36180;57.678;11.910;2023-03-01T06:10:10;5.05;;;2.35;;
49962;SDS011;36180;57.678;11.910;2023-03-01T06:12:38;6.35;;;2.95;;
49962;SDS011;36180;57.678;11.910;2023-03-01T06:15:07;8.70;;;3.58;;
49962;SDS011;36180;57.678;11.910;2023-03-01T06:17:37;6.93;;;3.50;;
49962;SDS011;36180;57.678;11.910;2023-03-01T06:20:06;10.77;;;4.05;;
49962;SDS011;36180;57.678;11.910;2023-03-01T06:22:37;6.70;;;3.58;;
49962;SDS011;36180;57.678;11.910;2023-03-01T06:25:04;7.80;;;3.00;;
49962;SDS011;36180;57.678;11.910;2023-03-01T06:27:32;4.72;;;3.42;;
49962;SDS011;36180;57.678;11.910;2023-03-01T06:30:00;6.97;;;3.10;;
49962;SDS011;36180;57.678;11.910;2023-03-01T06:32:27;6.60;;;3.00;;
49962;SDS011;36180;57.678;11.910;2023-03-01T06:34:54;7.68;;;3.45;;
49962;SDS011;36180;57.678;11.910;2023-03-01T06:37:21;5.32;;;3.47;;
49962;SDS011;36180;57.678;11.910;2023-03-01T06:39:49;8.07;;;4.43;;
49962;SDS011;36180;57.678;11.910;2023-03-01T06:42:16;10.10;;;3.60;;
49962;SDS011;36180;57.678;11.910;2023-03-01T06:44:43;6.63;;;3.65;;
49962;SDS011;36180;57.678;11.910;2023-03-01T06:47:11;10.02;;;3.58;;
49962;SDS011;36180;57.678;11.910;2023-03-01T06:49:38;8.27;;;3.90;;
49962;SDS011;36180;57.678;11.910;2023-03-01T06:52:05;8.30;;;3.88;;
49962;SDS011;36180;57.678;11.910;2023-03-01T06:54:32;9.77;;;3.55;;
49962;SDS011;36180;57.678;11.910;2023-03-01T06:57:01;6.65;;;3.25;;
49962;SDS011;36180;57.678;11.910;2023-03-01T06:59:28;5.63;;;2.97;;
49962;SDS011;36180;57.678;11.910;2023-03-01T07:01:55;6.78;;;3.35;;
49962;SDS011;36180;57.678;11.910;2023-03-01T07:04:22;11.10;;;3.83;;
49962;SDS011;36180;57.678;11.910;2023-03-01T07:06:49;7.43;;;3.13;;
49962;SDS011;36180;57.678;11.910;2023-03-01T07:09:20;8.68;;;3.55;;
49962;SDS011;36180;57.678;11.910;2023-03-01T07:11:47;11.65;;;3.38;;
49962;SDS011;36180;57.678;11.910;2023-03-01T07:14:16;8.50;;;3.30;;
49962;SDS011;36180;57.678;11.910;2023-03-01T07:16:44;8.55;;;3.10;;
49962;SDS011;36180;57.678;11.910;2023-03-01T07:19:12;7.00;;;3.15;;
49962;SDS011;36180;57.678;11.910;2023-03-01T07:21:39;6.15;;;2.72;;
49962;SDS011;36180;57.678;11.910;2023-03-01T07:24:06;7.38;;;3.53;;
49962;SDS011;36180;57.678;11.910;2023-03-01T07:26:33;6.60;;;3.20;;
49962;SDS011;36180;57.678;11.910;2023-03-01T07:29:01;5.82;;;2.67;;
49962;SDS011;36180;57.678;11.910;2023-03-01T07:31:30;8.82;;;3.25;;
49962;SDS011;36180;57.678;11.910;2023-03-01T07:33:57;6.18;;;2.65;;
49962;SDS011;36180;57.678;11.910;2023-03-01T07:36:24;6.53;;;2.88;;
49962;SDS011;36180;57.678;11.910;2023-03-01T07:38:51;6.88;;;2.75;;
49962;SDS011;36180;57.678;11.910;2023-03-01T07:41:20;6.55;;;3.03;;
49962;SDS011;36180;57.678;11.910;2023-03-01T07:43:48;3.90;;;2.38;;
49962;SDS011;36180;57.678;11.910;2023-03-01T07:46:15;6.40;;;3.15;;
49962;SDS011;36180;57.678;11.910;2023-03-01T07:48:44;7.40;;;3.00;;
49962;SDS011;36180;57.678;11.910;2023-03-01T07:51:12;7.40;;;2.92;;
49962;SDS011;36180;57.678;11.910;2023-03-01T07:53:39;6.30;;;2.60;;
49962;SDS011;36180;57.678;11.910;2023-03-01T07:56:07;7.47;;;2.30;;
49962;SDS011;36180;57.678;11.910;2023-03-01T07:58:35;4.65;;;2.50;;
49962;SDS011;36180;57.678;11.910;2023-03-01T08:01:03;7.95;;;2.58;;
49962;SDS011;36180;57.678;11.910;2023-03-01T08:03:30;7.20;;;2.47;;
49962;SDS011;36180;57.678;11.910;2023-03-01T08:06:00;5.47;;;2.80;;
49962;SDS011;36180;57.678;11.910;2023-03-01T08:08:27;5.47;;;2.20;;
49962;SDS011;36180;57.678;11.910;2023-03-01T08:10:56;4.78;;;2.28;;
49962;SDS011;36180;57.678;11.910;2023-03-01T08:13:23;7.40;;;2.55;;
49962;SDS011;36180;57.678;11.910;2023-03-01T08:15:50;4.28;;;2.10;;
49962;SDS011;36180;57.678;11.910;2023-03-01T08:18:18;7.03;;;2.78;;
49962;SDS011;36180;57.678;11.910;2023-03-01T08:20:46;9.23;;;2.58;;
49962;SDS011;36180;57.678;11.910;2023-03-01T08:23:15;13.48;;;4.68;;
49962;SDS011;36180;57.678;11.910;2023-03-01T08:25:42;6.20;;;2.83;;
49962;SDS011;36180;57.678;11.910;2023-03-01T08:28:09;7.20;;;2.50;;
49962;SDS011;36180;57.678;11.910;2023-03-01T08:30:36;5.43;;;2.00;;
49962;SDS011;36180;57.678;11.910;2023-03-01T08:33:03;4.18;;;1.98;;
49962;SDS011;36180;57.678;11.910;2023-03-01T08:35:30;3.78;;;1.75;;
49962;SDS011;36180;57.678;11.910;2023-03-01T08:37:58;1.88;;;1.27;;
49962;SDS011;36180;57.678;11.910;2023-03-01T08:40:26;3.40;;;1.55;;
49962;SDS011;36180;57.678;11.910;2023-03-01T08:42:53;2.83;;;1.45;;
49962;SDS011;36180;57.678;11.910;2023-03-01T08:45:20;5.00;;;1.48;;
49962;SDS011;36180;57.678;11.910;2023-03-01T08:47:50;2.80;;;1.40;;
49962;SDS011;36180;57.678;11.910;2023-03-01T08:50:18;3.63;;;1.40;;
49962;SDS011;36180;57.678;11.910;2023-03-01T08:52:45;3.53;;;1.20;;
49962;SDS011;36180;57.678;11.910;2023-03-01T08:55:12;4.32;;;1.40;;
49962;SDS011;36180;57.678;11.910;2023-03-01T08:57:42;3.10;;;1.15;;
49962;SDS011;36180;57.678;11.910;2023-03-01T09:00:10;2.85;;;1.17;;
49962;SDS011;36180;57.678;11.910;2023-03-01T09:02:40;2.65;;;1.10;;
49962;SDS011;36180;57.678;11.910;2023-03-01T09:05:07;1.77;;;1.10;;
49962;SDS011;36180;57.678;11.910;2023-03-01T09:07:35;2.03;;;1.13;;
49962;SDS011;36180;57.678;11.910;2023-03-01T09:10:02;2.92;;;0.93;;
49962;SDS011;36180;57.678;11.910;2023-03-01T09:12:30;3.53;;;1.08;;
49962;SDS011;36180;57.678;11.910;2023-03-01T09:14:58;1.60;;;1.10;;
49962;SDS011;36180;57.678;11.910;2023-03-01T09:17:25;2.05;;;0.90;;
49962;SDS011;36180;57.678;11.910;2023-03-01T09:19:52;3.40;;;1.40;;
49962;SDS011;36180;57.678;11.910;2023-03-01T09:22:19;4.65;;;1.23;;
49962;SDS011;36180;57.678;11.910;2023-03-01T09:24:46;3.97;;;1.13;;
49962;SDS011;36180;57.678;11.910;2023-03-01T09:27:13;1.88;;;1.17;;
49962;SDS011;36180;57.678;11.910;2023-03-01T09:29:43;2.50;;;1.10;;
49962;SDS011;36180;57.678;11.910;2023-03-01T09:32:12;1.70;;;0.98;;
49962;SDS011;36180;57.678;11.910;2023-03-01T09:34:39;1.83;;;1.40;;
49962;SDS011;36180;57.678;11.910;2023-03-01T09:37:20;2.70;;;1.10;;
49962;SDS011;36180;57.678;11.910;2023-03-01T09:39:47;3.88;;;0.82;;
49962;SDS011;36180;57.678;11.910;2023-03-01T09:42:14;5.68;;;1.30;;
49962;SDS011;36180;57.678;11.910;2023-03-01T09:44:43;2.50;;;0.93;;
49962;SDS011;36180;57.678;11.910;2023-03-01T09:47:16;2.10;;;0.85;;
49962;SDS011;36180;57.678;11.910;2023-03-01T09:49:44;1.55;;;0.82;;
49962;SDS011;36180;57.678;11.910;2023-03-01T09:52:18;3.08;;;1.00;;
49962;SDS011;36180;57.678;11.910;2023-03-01T09:54:48;1.45;;;0.77;;
49962;SDS011;36180;57.678;11.910;2023-03-01T09:57:18;0.85;;;0.65;;
49962;SDS011;36180;57.678;11.910;2023-03-01T09:59:50;2.90;;;1.02;;
49962;SDS011;36180;57.678;11.910;2023-03-01T10:02:33;3.35;;;1.05;;
49962;SDS011;36180;57.678;11.910;2023-03-01T10:05:10;2.05;;;0.80;;
49962;SDS011;36180;57.678;11.910;2023-03-01T10:07:44;1.17;;;0.60;;
49962;SDS011;36180;57.678;11.910;2023-03-01T10:10:16;2.13;;;1.08;;
49962;SDS011;36180;57.678;11.910;2023-03-01T10:12:55;5.63;;;1.00;;
49962;SDS011;36180;57.678;11.910;2023-03-01T10:15:25;6.50;;;1.10;;
49962;SDS011;36180;57.678;11.910;2023-03-01T10:17:59;3.05;;;1.48;;
49962;SDS011;36180;57.678;11.910;2023-03-01T10:20:30;5.18;;;0.98;;
49962;SDS011;36180;57.678;11.910;2023-03-01T10:23:02;6.07;;;1.35;;
49962;SDS011;36180;57.678;11.910;2023-03-01T10:25:36;2.92;;;1.00;;
49962;SDS011;36180;57.678;11.910;2023-03-01T10:28:15;4.43;;;0.90;;
49962;SDS011;36180;57.678;11.910;2023-03-01T10:30:43;5.25;;;1.00;;
49962;SDS011;36180;57.678;11.910;2023-03-01T10:33:16;8.98;;;1.00;;
49962;SDS011;36180;57.678;11.910;2023-03-01T10:35:44;6.18;;;1.00;;
49962;SDS011;36180;57.678;11.910;2023-03-01T10:38:13;4.95;;;1.00;;
49962;SDS011;36180;57.678;11.910;2023-03-01T10:40:51;4.65;;;1.20;;
49962;SDS011;36180;57.678;11.910;2023-03-01T10:43:20;4.88;;;0.98;;
49962;SDS011;36180;57.678;11.910;2023-03-01T10:45:47;6.07;;;0.90;;
49962;SDS011;36180;57.678;11.910;2023-03-01T10:48:17;2.72;;;0.90;;
49962;SDS011;36180;57.678;11.910;2023-03-01T10:50:46;1.27;;;0.68;;
49962;SDS011;36180;57.678;11.910;2023-03-01T10:53:25;5.72;;;1.13;;
49962;SDS011;36180;57.678;11.910;2023-03-01T10:55:57;4.53;;;1.05;;
49962;SDS011;36180;57.678;11.910;2023-03-01T10:58:26;7.30;;;1.27;;
49962;SDS011;36180;57.678;11.910;2023-03-01T11:00:55;4.70;;;1.23;;
49962;SDS011;36180;57.678;11.910;2023-03-01T11:03:25;7.35;;;1.25;;
49962;SDS011;36180;57.678;11.910;2023-03-01T11:05:55;3.58;;;1.08;;
49962;SDS011;36180;57.678;11.910;2023-03-01T11:08:34;8.88;;;1.52;;
49962;SDS011;36180;57.678;11.910;2023-03-01T11:11:04;4.18;;;1.23;;
49962;SDS011;36180;57.678;11.910;2023-03-01T11:13:33;4.47;;;1.27;;
49962;SDS011;36180;57.678;11.910;2023-03-01T11:16:02;2.17;;;1.00;;
49962;SDS011;36180;57.678;11.910;2023-03-01T11:18:31;3.10;;;0.70;;
49962;SDS011;36180;57.678;11.910;2023-03-01T11:20:59;5.40;;;0.70;;
49962;SDS011;36180;57.678;11.910;2023-03-01T11:23:28;1.88;;;0.82;;
49962;SDS011;36180;57.678;11.910;2023-03-01T11:25:56;7.20;;;1.20;;
49962;SDS011;36180;57.678;11.910;2023-03-01T11:28:26;4.13;;;0.70;;
49962;SDS011;36180;57.678;11.910;2023-03-01T11:30:55;4.68;;;0.68;;
49962;SDS011;36180;57.678;11.910;2023-03-01T11:33:31;4.10;;;0.90;;
49962;SDS011;36180;57.678;11.910;2023-03-01T11:36:05;4.68;;;0.93;;
49962;SDS011;36180;57.678;11.910;2023-03-01T11:38:35;6.40;;;0.80;;
49962;SDS011;36180;57.678;11.910;2023-03-01T11:41:04;3.28;;;1.00;;
49962;SDS011;36180;57.678;11.910;2023-03-01T11:43:33;5.55;;;1.27;;
49962;SDS011;36180;57.678;11.910;2023-03-01T11:46:27;5.72;;;0.80;;
49962;SDS011;36180;57.678;11.910;2023-03-01T11:49:19;3.83;;;1.08;;
49962;SDS011;36180;57.678;11.910;2023-03-01T11:52:02;3.72;;;0.80;;
49962;SDS011;36180;57.678;11.910;2023-03-01T11:54:39;4.50;;;0.88;;
49962;SDS011;36180;57.678;11.910;2023-03-01T11:57:14;10.55;;;1.20;;
49962;SDS011;36180;57.678;11.910;2023-03-01T11:59:48;28.95;;;2.40;;
49962;SDS011;36180;57.678;11.910;2023-03-01T12:02:29;11.50;;;2.55;;
49962;SDS011;36180;57.678;11.910;2023-03-01T12:08:20;7.65;;;1.35;;
49962;SDS011;36180;57.678;11.910;2023-03-01T12:10:53;3.05;;;0.98;;
49962;SDS011;36180;57.678;11.910;2023-03-01T12:13:37;4.25;;;1.08;;
49962;SDS011;36180;57.678;11.910;2023-03-01T12:16:36;7.65;;;0.75;;
49962;SDS011;36180;57.678;11.910;2023-03-01T12:19:22;1.67;;;0.60;;
49962;SDS011;36180;57.678;11.910;2023-03-01T12:22:02;2.80;;;0.60;;
49962;SDS011;36180;57.678;11.910;2023-03-01T12:27:51;4.70;;;1.63;;
49962;SDS011;36180;57.678;11.910;2023-03-01T12:30:33;0.80;;;0.40;;
49962;SDS011;36180;57.678;11.910;2023-03-01T12:33:11;3.50;;;0.60;;
49962;SDS011;36180;57.678;11.910;2023-03-01T12:35:52;11.18;;;1.73;;
49962;SDS011;36180;57.678;11.910;2023-03-01T12:38:32;3.28;;;0.63;;
49962;SDS011;36180;57.678;11.910;2023-03-01T12:41:13;3.25;;;0.63;;
49962;SDS011;36180;57.678;11.910;2023-03-01T12:43:53;3.10;;;0.85;;
49962;SDS011;36180;57.678;11.910;2023-03-01T12:46:30;4.70;;;0.77;;
49962;SDS011;36180;57.678;11.910;2023-03-01T12:49:07;0.90;;;0.40;;
49962;SDS011;36180;57.678;11.910;2023-03-01T12:51:35;1.60;;;0.40;;
49962;SDS011;36180;57.678;11.910;2023-03-01T12:54:05;7.93;;;0.88;;
49962;SDS011;36180;57.678;11.910;2023-03-01T12:56:40;6.03;;;0.70;;
49962;SDS011;36180;57.678;11.910;2023-03-01T12:59:09;3.83;;;1.00;;
49962;SDS011;36180;57.678;11.910;2023-03-01T13:04:12;2.95;;;1.15;;
49962;SDS011;36180;57.678;11.910;2023-03-01T13:06:44;3.28;;;1.20;;
49962;SDS011;36180;57.678;11.910;2023-03-01T13:09:23;5.35;;;1.00;;
49962;SDS011;36180;57.678;11.910;2023-03-01T13:11:56;5.00;;;0.88;;
49962;SDS011;36180;57.678;11.910;2023-03-01T13:17:30;0.70;;;0.40;;
49962;SDS011;36180;57.678;11.910;2023-03-01T13:19:58;3.40;;;0.65;;
49962;SDS011;36180;57.678;11.910;2023-03-01T13:22:26;3.78;;;0.50;;
49962;SDS011;36180;57.678;11.910;2023-03-01T13:27:46;1.98;;;0.45;;
49962;SDS011;36180;57.678;11.910;2023-03-01T13:36:09;5.68;;;1.35;;
49962;SDS011;36180;57.678;11.910;2023-03-01T13:38:47;6.53;;;1.27;;
49962;SDS011;36180;57.678;11.910;2023-03-01T13:44:20;6.22;;;1.42;;
49962;SDS011;36180;57.678;11.910;2023-03-01T13:46:49;8.95;;;1.45;;
49962;SDS011;36180;57.678;11.910;2023-03-01T13:49:17;3.45;;;0.90;;
49962;SDS011;36180;57.678;11.910;2023-03-01T13:51:46;7.43;;;1.52;;
49962;SDS011;36180;57.678;11.910;2023-03-01T13:54:13;11.85;;;1.38;;
49962;SDS011;36180;57.678;11.910;2023-03-01T13:56:42;6.38;;;1.00;;
49962;SDS011;36180;57.678;11.910;2023-03-01T13:59:13;8.52;;;1.23;;
49962;SDS011;36180;57.678;11.910;2023-03-01T14:01:42;11.73;;;1.20;;
49962;SDS011;36180;57.678;11.910;2023-03-01T14:04:18;6.80;;;1.50;;
49962;SDS011;36180;57.678;11.910;2023-03-01T14:06:47;3.10;;;1.17;;
49962;SDS011;36180;57.678;11.910;2023-03-01T14:09:15;6.47;;;1.08;;
49962;SDS011;36180;57.678;11.910;2023-03-01T14:11:49;5.45;;;1.33;;
49962;SDS011;36180;57.678;11.910;2023-03-01T14:14:36;7.13;;;1.15;;
49962;SDS011;36180;57.678;11.910;2023-03-01T14:17:12;9.82;;;1.20;;
49962;SDS011;36180;57.678;11.910;2023-03-01T14:19:56;6.60;;;0.95;;
49962;SDS011;36180;57.678;11.910;2023-03-01T14:22:25;6.30;;;1.00;;
49962;SDS011;36180;57.678;11.910;2023-03-01T14:24:55;7.72;;;1.13;;
49962;SDS011;36180;57.678;11.910;2023-03-01T14:27:23;8.45;;;1.30;;
49962;SDS011;36180;57.678;11.910;2023-03-01T14:29:56;7.25;;;1.17;;
49962;SDS011;36180;57.678;11.910;2023-03-01T14:32:26;5.60;;;1.30;;
49962;SDS011;36180;57.678;11.910;2023-03-01T14:34:54;10.50;;;1.40;;
49962;SDS011;36180;57.678;11.910;2023-03-01T14:37:24;8.02;;;1.23;;
49962;SDS011;36180;57.678;11.910;2023-03-01T14:39:52;7.07;;;1.10;;
49962;SDS011;36180;57.678;11.910;2023-03-01T14:42:19;9.88;;;1.33;;
49962;SDS011;36180;57.678;11.910;2023-03-01T14:44:49;6.82;;;1.20;;
49962;SDS011;36180;57.678;11.910;2023-03-01T14:47:26;7.32;;;1.15;;
49962;SDS011;36180;57.678;11.910;2023-03-01T14:49:57;7.10;;;1.30;;
49962;SDS011;36180;57.678;11.910;2023-03-01T14:52:28;3.83;;;1.20;;
49962;SDS011;36180;57.678;11.910;2023-03-01T14:55:00;8.38;;;1.27;;
49962;SDS011;36180;57.678;11.910;2023-03-01T14:57:29;5.38;;;1.08;;
49962;SDS011;36180;57.678;11.910;2023-03-01T14:59:58;5.57;;;1.02;;
49962;SDS011;36180;57.678;11.910;2023-03-01T15:02:31;5.95;;;0.98;;
49962;SDS011;36180;57.678;11.910;2023-03-01T15:04:58;3.90;;;0.90;;
49962;SDS011;36180;57.678;11.910;2023-03-01T15:07:28;5.07;;;0.85;;
49962;SDS011;36180;57.678;11.910;2023-03-01T15:09:57;5.25;;;1.38;;
49962;SDS011;36180;57.678;11.910;2023-03-01T15:12:38;11.10;;;1.10;;